| time (UTC) | temp F | wind direction | speed knots | gust knots | rain 1hr in | rain 24hr in | rain mn in | humidity % | barometer mb |
| 20260505124528 | 41 | 103 | 0.9 | 6.1 | 0.00 | 0.02 | 0.01 | 83 | 1013.2 |
| 20260505123027 | 41 | 128 | 0.9 | 4.3 | 0.00 | 0.02 | 0.01 | 82 | 1013.2 |
| 20260505121533 | 41 | 132 | 0.0 | 3.5 | 0.00 | 0.02 | 0.01 | 81 | 1012.8 |
| 20260505120054 | 42 | 122 | 0.0 | 2.6 | 0.00 | 0.02 | 0.01 | 82 | 1012.8 |
| 20260505114526 | 42 | 103 | 0.0 | 2.6 | 0.00 | 0.02 | 0.01 | 83 | 1012.8 |
| 20260505113027 | 42 | 130 | 0.0 | 2.6 | 0.00 | 0.02 | 0.01 | 84 | 1012.7 |
| 20260505111528 | 42 | 134 | 0.0 | 2.6 | 0.00 | 0.02 | 0.01 | 85 | 1012.6 |
| 20260505101529 | 42 | 190 | 0.0 | 0.9 | 0.00 | 0.02 | 0.01 | 84 | 1012.4 |
| 20260505100028 | 42 | 190 | 0.0 | 0.0 | 0.00 | 0.02 | 0.01 | 83 | 1012.2 |
| 20260505094528 | 43 | 190 | 0.0 | 0.9 | 0.00 | 0.02 | 0.01 | 84 | 1012.3 |
| 20260505093030 | 43 | 125 | 0.0 | 1.7 | 0.00 | 0.02 | 0.01 | 84 | 1012.1 |
| 20260505091529 | 43 | 40 | 0.0 | 1.7 | 0.00 | 0.02 | 0.01 | 84 | 1012.3 |
| 20260505090038 | 44 | 40 | 0.0 | 2.6 | 0.00 | 0.02 | 0.01 | 84 | 1012.3 |
| 20260505084526 | 44 | 40 | 0.9 | 2.6 | 0.00 | 0.02 | 0.01 | 85 | 1012.8 |
| 20260505083029 | 44 | 335 | 0.0 | 0.9 | 0.00 | 0.02 | 0.01 | 85 | 1012.9 |
| 20260505081533 | 44 | 335 | 0.0 | 1.7 | 0.00 | 0.02 | 0.01 | 85 | 1013.2 |
| 20260505080035 | 44 | 335 | 0.0 | 1.7 | 0.00 | 0.02 | 0.01 | 85 | 1013.3 |
| 20260505074527 | 45 | 340 | 0.9 | 2.6 | 0.00 | 0.02 | 0.01 | 85 | 1013.3 |
| 20260505073043 | 45 | 355 | 0.9 | 3.5 | 0.00 | 0.02 | 0.01 | 84 | 1013.3 |
| 20260505071526 | 45 | 22 | 0.9 | 4.3 | 0.01 | 0.02 | 0.01 | 84 | 1013.5 |
| 20260505070026 | 45 | 333 | 0.9 | 4.3 | 0.01 | 0.02 | 0.01 | 83 | 1013.5 |
| 20260505064537 | 45 | 348 | 0.9 | 2.6 | 0.01 | 0.02 | 0.01 | 82 | 1013.5 |
| 20260505063025 | 46 | 324 | 0.9 | 3.5 | 0.01 | 0.02 | 0.01 | 82 | 1013.6 |
| 20260505061540 | 46 | 34 | 1.7 | 4.3 | 0.00 | 0.01 | 0.00 | 81 | 1013.4 |
| 20260505060028 | 46 | 360 | 1.7 | 3.5 | 0.00 | 0.01 | 0.00 | 79 | 1013.9 |
| 20260505054547 | 46 | 325 | 1.7 | 4.3 | 0.00 | 0.01 | 0.01 | 78 | 1014.0 |
| 20260505053030 | 46 | 17 | 0.9 | 4.3 | 0.00 | 0.01 | 0.01 | 78 | 1013.9 |
| 20260505051533 | 46 | 319 | 0.0 | 1.7 | 0.00 | 0.01 | 0.01 | 77 | 1014.0 |
| 20260505041527 | 47 | 327 | 0.0 | 2.6 | 0.00 | 0.01 | 0.01 | 73 | 1013.1 |
| 20260505040030 | 47 | 355 | 0.0 | 1.7 | 0.00 | 0.01 | 0.01 | 73 | 1012.9 |
| 20260505034527 | 47 | 34 | 1.7 | 7.8 | 0.00 | 0.01 | 0.01 | 73 | 1012.9 |
| 20260505033026 | 48 | 360 | 2.6 | 7.8 | 0.00 | 0.01 | 0.01 | 72 | 1013.1 |
| 20260505031541 | 48 | 329 | 1.7 | 8.7 | 0.00 | 0.01 | 0.01 | 71 | 1013.0 |
| 20260505030027 | 48 | 9 | 1.7 | 8.7 | 0.00 | 0.01 | 0.01 | 72 | 1012.4 |
| 20260505024534 | 48 | 9 | 2.6 | 7.8 | 0.00 | 0.01 | 0.01 | 71 | 1013.0 |
| 20260505023030 | 49 | 5 | 2.6 | 7.0 | 0.01 | 0.01 | 0.01 | 71 | 1012.7 |
| 20260505021528 | 49 | 51 | 3.5 | 7.8 | 0.01 | 0.01 | 0.01 | 69 | 1012.8 |
| 20260505020031 | 50 | 11 | 5.2 | 13.0 | 0.01 | 0.01 | 0.01 | 67 | 1013.3 |
| 20260505013029 | 53 | 32 | 0.9 | 10.4 | 0.00 | 0.00 | 0.00 | 61 | 1012.9 |
| 20260505011533 | 55 | 31 | 3.5 | 11.3 | 0.00 | 0.00 | 0.00 | 50 | 1012.7 |
| 20260505010026 | 57 | 205 | 1.7 | 7.0 | 0.00 | 0.00 | 0.00 | 46 | 1011.9 |
| 20260505004542 | 58 | 360 | 1.7 | 12.2 | 0.00 | 0.00 | 0.00 | 38 | 1011.5 |
| 20260505003025 | 59 | 355 | 5.2 | 11.3 | 0.00 | 0.00 | 0.00 | 36 | 1010.9 |
| 20260505001526 | 60 | 315 | 5.2 | 12.2 | 0.00 | 0.00 | 0.00 | 35 | 1010.6 |
| 20260505000042 | 61 | 335 | 5.2 | 10.4 | 0.00 | 0.00 | 0.00 | 33 | 1010.2 |
| 20260504234528 | 63 | 17 | 8.7 | 14.8 | 0.00 | 0.00 | 0.00 | 33 | 1010.0 |
| 20260504233028 | 63 | 22 | 1.7 | 7.8 | 0.00 | 0.00 | 0.00 | 34 | 1010.3 |
| 20260504231525 | 63 | 5 | 1.7 | 4.3 | 0.00 | 0.00 | 0.00 | 35 | 1010.2 |
| 20260504230028 | 62 | 221 | 0.9 | 4.3 | 0.00 | 0.00 | 0.00 | 38 | 1010.2 |
| 20260504224527 | 61 | 190 | 0.9 | 6.1 | 0.00 | 0.00 | 0.00 | 38 | 1010.2 |
| 20260504223026 | 60 | 226 | 0.9 | 5.2 | 0.00 | 0.00 | 0.00 | 40 | 1010.4 |
| 20260504221528 | 59 | 100 | 1.7 | 5.2 | 0.00 | 0.00 | 0.00 | 39 | 1010.5 |
| 20260504220028 | 60 | 219 | 7.0 | 12.2 | 0.00 | 0.00 | 0.00 | 37 | 1010.3 |
| 20260504214529 | 63 | 115 | 5.2 | 10.4 | 0.00 | 0.00 | 0.00 | 30 | 1010.4 |
| 20260504213028 | 65 | 317 | 5.2 | 11.3 | 0.00 | 0.00 | 0.00 | 23 | 1009.5 |
| 20260504211527 | 67 | 321 | 2.6 | 7.0 | 0.00 | 0.00 | 0.00 | 22 | 1009.4 |
| 20260504210026 | 68 | 223 | 0.9 | 4.3 | 0.00 | 0.00 | 0.00 | 23 | 1009.2 |
| 20260504204527 | 69 | 196 | 0.9 | 4.3 | 0.00 | 0.00 | 0.00 | 21 | 1009.4 |
| 20260504203031 | 68 | 243 | 0.9 | 3.5 | 0.00 | 0.00 | 0.00 | 26 | 1009.8 |
| 20260504201529 | 67 | 218 | 1.7 | 4.3 | 0.00 | 0.00 | 0.00 | 24 | 1009.9 |
| 20260504200026 | 67 | 328 | 3.5 | 9.6 | 0.00 | 0.00 | 0.00 | 20 | 1010.1 |
| 20260504194528 | 70 | 273 | 2.6 | 8.7 | 0.00 | 0.00 | 0.00 | 19 | 1010.2 |
| 20260504193028 | 72 | 209 | 1.7 | 5.2 | 0.00 | 0.00 | 0.00 | 17 | 1010.2 |
| 20260504191527 | 75 | 198 | 1.7 | 7.8 | 0.00 | 0.00 | 0.00 | 16 | 1010.3 |
| 20260504190027 | 75 | 225 | 1.7 | 8.7 | 0.00 | 0.00 | 0.00 | 16 | 1010.7 |
| 20260504184526 | 75 | 275 | 0.9 | 3.5 | 0.00 | 0.00 | 0.00 | 17 | 1010.8 |
| 20260504183028 | 74 | 58 | 0.0 | 5.2 | 0.00 | 0.00 | 0.00 | 18 | 1011.2 |
| 20260504181529 | 72 | 331 | 0.9 | 5.2 | 0.00 | 0.00 | 0.00 | 19 | 1011.6 |
| 20260504180029 | 70 | 242 | 0.0 | 5.2 | 0.00 | 0.00 | 0.00 | 22 | 1011.7 |
| 20260504174526 | 68 | 205 | 3.5 | 7.0 | 0.00 | 0.00 | 0.00 | 24 | 1011.8 |
| 20260504173025 | 69 | 198 | 0.9 | 7.0 | 0.00 | 0.00 | 0.00 | 22 | 1012.0 |
| 20260504171528 | 69 | 230 | 1.7 | 6.1 | 0.00 | 0.00 | 0.00 | 24 | 1012.2 |